Time;durP1;ratioP1;P1;durP2;ratioP2;P2;SDS_P1;SDS_P2;PMS_P1;PMS_P2;Temp;Humidity;BMP_temperature;BMP_pressure;BME280_temperature;BME280_humidity;BME280_pressure;Samples;Min_cycle;Max_cycle;Signal;HPM_P1;HPM_P2
2023/02/07 00:00:47;;;;;;;0.30;0.30;;;;;;;1.40;90.11;103493.69;4942931;28;20028;-58
2023/02/07 00:03:13;;;;;;;0.35;0.25;;;;;;;1.45;89.63;103483.19;4940232;28;20039;-58
2023/02/07 00:05:38;;;;;;;0.30;0.30;;;;;;;1.32;90.13;103485.19;4948538;28;20569;-58
2023/02/07 00:08:05;;;;;;;0.20;0.20;;;;;;;1.34;89.98;103483.13;4945948;28;20031;-59
2023/02/07 00:10:31;;;;;;;0.20;0.20;;;;;;;1.46;89.64;103474.22;4943074;28;20170;-59
2023/02/07 00:12:57;;;;;;;0.20;0.20;;;;;;;1.52;89.38;103478.63;4939773;28;20043;-60
2023/02/07 00:15:23;;;;;;;0.20;0.20;;;;;;;1.55;89.33;103475.50;4943720;28;20032;-60
2023/02/07 00:17:48;;;;;;;0.20;0.20;;;;;;;1.59;89.35;103474.03;4939780;28;20406;-59
2023/02/07 00:20:16;;;;;;;0.30;0.30;;;;;;;1.48;88.87;103484.59;4948415;28;20042;-58
2023/02/07 00:22:42;;;;;;;0.20;0.20;;;;;;;1.51;89.04;103482.28;4944869;28;20114;-59
2023/02/07 00:25:09;;;;;;;0.28;0.28;;;;;;;1.47;89.81;103478.47;4950622;28;20389;-60
2023/02/07 00:27:34;;;;;;;0.30;0.30;;;;;;;1.51;89.72;103487.59;4944682;28;20098;-60
2023/02/07 00:29:59;;;;;;;0.30;0.30;;;;;;;1.54;89.83;103491.66;4945284;28;20035;-59
2023/02/07 00:32:25;;;;;;;0.45;0.45;;;;;;;1.61;90.20;103485.25;4938257;28;20035;-60
2023/02/07 00:34:50;;;;;;;0.55;0.40;;;;;;;1.64;90.46;103494.59;4950093;28;20627;-60
2023/02/07 00:37:16;;;;;;;0.40;0.40;;;;;;;1.68;90.01;103490.47;4941491;28;20035;-57
2023/02/07 00:39:42;;;;;;;0.20;0.20;;;;;;;1.69;89.95;103495.56;4952452;28;20036;-56
2023/02/07 00:42:07;;;;;;;0.20;0.20;;;;;;;1.64;90.09;103497.25;4943080;28;20745;-56
2023/02/07 00:44:33;;;;;;;0.20;0.20;;;;;;;1.64;90.21;103494.59;4953467;28;20508;-56
2023/02/07 00:46:58;;;;;;;0.30;0.30;;;;;;;1.65;90.46;103489.06;4945428;28;20093;-60
2023/02/07 00:49:24;;;;;;;0.17;0.17;;;;;;;1.63;90.42;103493.78;4946170;28;20035;-60
2023/02/07 00:51:50;;;;;;;0.35;0.35;;;;;;;1.47;90.89;103489.09;4944313;29;20116;-52
2023/02/07 00:54:16;;;;;;;0.20;0.20;;;;;;;1.59;90.78;103484.66;4957089;28;20141;-55
2023/02/07 00:56:42;;;;;;;0.20;0.20;;;;;;;1.53;90.61;103484.75;4961523;28;20086;-58
2023/02/07 00:59:08;;;;;;;0.20;0.20;;;;;;;1.50;91.00;103478.03;4938304;29;20059;-56
2023/02/07 01:01:34;;;;;;;0.30;0.30;;;;;;;1.57;90.63;103472.63;4936975;29;20150;-55
2023/02/07 01:04:00;;;;;;;0.20;0.20;;;;;;;1.46;91.02;103471.56;4933899;29;20569;-55
2023/02/07 01:06:26;;;;;;;0.28;0.28;;;;;;;1.46;91.48;103466.25;4943374;28;20039;-57
2023/02/07 01:08:59;;;;;;;0.20;0.20;;;;;;;1.56;91.22;103471.84;4941964;28;20027;-57
2023/02/07 01:11:27;;;;;;;0.10;0.10;;;;;;;1.40;91.47;103483.06;4945781;29;20047;-58
2023/02/07 01:13:53;;;;;;;0.30;0.30;;;;;;;1.39;92.65;103473.50;4937643;28;20522;-59
2023/02/07 01:16:26;;;;;;;0.50;0.50;;;;;;;1.33;92.79;103474.38;4948971;28;20362;-55
2023/02/07 01:18:52;;;;;;;0.40;0.40;;;;;;;1.44;92.87;103470.97;4940351;28;20039;-57
2023/02/07 01:21:21;;;;;;;0.30;0.30;;;;;;;1.48;92.13;103464.19;4942338;29;20051;-58
2023/02/07 01:23:47;;;;;;;0.22;0.22;;;;;;;1.45;92.04;103454.00;4965501;28;20034;-56
2023/02/07 01:26:12;;;;;;;0.30;0.30;;;;;;;1.39;91.84;103462.06;4952139;28;20442;-60
2023/02/07 01:28:38;;;;;;;0.30;0.30;;;;;;;1.29;91.46;103467.06;4945844;28;20042;-60
2023/02/07 01:31:09;;;;;;;0.20;0.20;;;;;;;1.31;92.12;103462.34;4948597;28;20566;-58
2023/02/07 01:33:35;;;;;;;0.35;0.35;;;;;;;1.32;91.78;103462.13;4947336;28;20035;-58
2023/02/07 01:36:08;;;;;;;0.20;0.20;;;;;;;1.41;91.62;103454.69;4947392;28;20119;-58
2023/02/07 01:38:34;;;;;;;0.30;0.30;;;;;;;1.44;91.64;103456.88;4942442;28;20455;-60
2023/02/07 01:40:59;;;;;;;0.25;0.25;;;;;;;1.38;91.80;103458.59;4948995;29;20035;-60
2023/02/07 01:43:25;;;;;;;0.20;0.20;;;;;;;1.43;91.23;103456.06;4942739;28;20065;-57
2023/02/07 01:45:51;;;;;;;0.30;0.30;;;;;;;1.42;91.59;103458.94;4948423;29;20062;-57
2023/02/07 01:48:22;;;;;;;0.65;0.65;;;;;;;1.47;90.76;103454.56;4944072;28;20488;-59
2023/02/07 01:50:52;;;;;;;0.40;0.40;;;;;;;1.36;91.86;103460.66;4942740;28;20081;-57
2023/02/07 01:53:21;;;;;;;0.30;0.30;;;;;;;1.40;91.38;103459.19;4947159;28;20027;-59
2023/02/07 01:55:50;;;;;;;0.20;0.20;;;;;;;1.12;91.88;103448.31;4949319;28;20090;-58
2023/02/07 01:58:16;;;;;;;0.50;0.50;;;;;;;1.20;91.98;103455.16;4947512;29;20656;-57
2023/02/07 02:00:43;;;;;;;0.55;0.55;;;;;;;1.23;91.91;103444.91;4949917;28;20032;-59
2023/02/07 02:03:08;;;;;;;0.30;0.30;;;;;;;1.29;91.38;103448.50;4946615;29;20035;-60
2023/02/07 02:05:35;;;;;;;0.20;0.20;;;;;;;1.22;91.31;103451.22;4937229;29;20709;-60
2023/02/07 02:08:01;;;;;;;0.30;0.30;;;;;;;1.22;91.52;103451.22;4944710;28;20482;-60
2023/02/07 02:10:57;;;;;;;0.30;0.30;;;;;;;1.22;91.29;103448.56;4944124;29;20045;-59
2023/02/07 02:13:29;;;;;;;0.30;0.30;;;;;;;1.15;91.48;103444.38;4945423;28;20070;-60
2023/02/07 02:16:23;;;;;;;0.30;0.30;;;;;;;1.11;91.75;103451.97;4944482;28;20042;-59
2023/02/07 02:18:52;;;;;;;0.40;0.40;;;;;;;0.96;93.24;103443.59;4939777;28;20141;-57
2023/02/07 02:21:57;;;;;;;0.22;0.22;;;;;;;0.98;93.02;103454.78;4943883;28;20442;-59
2023/02/07 02:24:38;;;;;;;0.40;0.40;;;;;;;1.06;93.90;103462.47;4952683;28;20106;-59
2023/02/07 02:27:31;;;;;;;0.30;0.30;;;;;;;1.19;93.71;103459.66;4944458;28;20063;-58
2023/02/07 02:30:30;;;;;;;0.40;0.40;;;;;;;1.28;93.90;103463.59;4966281;28;20050;-59
2023/02/07 02:33:14;;;;;;;0.20;0.20;;;;;;;1.35;93.02;103458.22;4952280;28;20102;-58
2023/02/07 02:35:52;;;;;;;0.57;0.57;;;;;;;1.35;92.67;103461.69;4950695;28;20493;-59
2023/02/07 02:38:49;;;;;;;0.50;0.50;;;;;;;1.52;92.26;103454.72;4939726;28;20054;-60
2023/02/07 02:41:25;;;;;;;0.40;0.40;;;;;;;1.38;92.41;103457.75;4950421;29;20438;-57
2023/02/07 02:43:58;;;;;;;0.60;0.60;;;;;;;1.35;92.96;103453.75;4961625;28;20037;-59
2023/02/07 02:46:28;;;;;;;0.20;0.20;;;;;;;1.27;92.90;103455.88;4965220;28;20078;-58
2023/02/07 02:48:57;;;;;;;0.25;0.25;;;;;;;1.23;92.57;103439.59;4952260;28;20649;-59
2023/02/07 02:51:22;;;;;;;0.40;0.40;;;;;;;1.40;91.90;103437.13;4940310;29;20498;-59
2023/02/07 02:53:58;;;;;;;0.30;0.30;;;;;;;1.34;92.08;103441.50;4947945;29;20069;-59
2023/02/07 02:57:04;;;;;;;0.40;0.40;;;;;;;1.50;91.85;103442.72;4964013;28;20098;-57
2023/02/07 03:00:00;;;;;;;0.50;0.50;;;;;;;1.23;91.86;103442.25;4955695;28;20089;-60
2023/02/07 03:02:32;;;;;;;0.30;0.30;;;;;;;1.18;93.27;103441.31;4965098;28;20042;-59
2023/02/07 03:05:17;;;;;;;0.30;0.30;;;;;;;1.29;92.84;103443.19;4943119;28;20382;-59
2023/02/07 03:08:06;;;;;;;0.30;0.30;;;;;;;1.44;92.10;103438.31;4963667;28;20035;-59
2023/02/07 03:10:52;;;;;;;0.40;0.40;;;;;;;1.21;92.72;103438.19;4945141;28;20070;-59
2023/02/07 03:13:28;;;;;;;0.30;0.30;;;;;;;1.32;92.69;103437.44;4961229;28;20071;-59
2023/02/07 03:16:26;;;;;;;0.30;0.30;;;;;;;1.06;92.00;103422.66;4936263;28;20502;-60
2023/02/07 03:19:00;;;;;;;0.25;0.25;;;;;;;1.03;93.11;103424.97;4964360;28;20077;-59
2023/02/07 03:21:43;;;;;;;0.20;0.20;;;;;;;1.06;93.74;103417.38;4943602;28;20040;-59
2023/02/07 03:24:19;;;;;;;0.20;0.20;;;;;;;1.16;93.12;103416.84;4948778;28;20066;-59
2023/02/07 03:26:49;;;;;;;0.30;0.30;;;;;;;0.99;92.72;103424.56;4942776;28;20039;-58
2023/02/07 03:29:18;;;;;;;0.30;0.30;;;;;;;1.03;93.52;103407.19;4960666;28;20094;-58
2023/02/07 03:31:48;;;;;;;0.38;0.38;;;;;;;1.03;93.29;103406.41;4935403;28;20443;-58
2023/02/07 03:34:23;;;;;;;0.30;0.30;;;;;;;1.06;93.27;103401.44;4937973;28;20584;-60
2023/02/07 03:37:06;;;;;;;0.35;0.35;;;;;;;1.07;92.99;103402.22;4946547;28;20066;-59
2023/02/07 03:39:32;;;;;;;0.25;0.25;;;;;;;1.12;92.81;103394.44;4947244;28;20043;-59
2023/02/07 03:42:05;;;;;;;0.28;0.28;;;;;;;1.22;92.18;103384.88;4944558;28;20036;-59
2023/02/07 03:44:36;;;;;;;0.52;0.52;;;;;;;1.27;91.52;103393.00;4943729;29;20410;-59
2023/02/07 03:47:03;;;;;;;0.30;0.30;;;;;;;1.15;91.97;103386.84;4945009;28;20042;-57
2023/02/07 03:49:28;;;;;;;0.30;0.30;;;;;;;1.16;91.67;103383.13;4930694;28;20039;-58
2023/02/07 03:51:54;;;;;;;0.30;0.30;;;;;;;1.28;91.66;103375.25;4939058;28;20445;-57
2023/02/07 03:54:19;;;;;;;0.40;0.40;;;;;;;1.20;91.37;103373.69;4935720;28;20042;-59
2023/02/07 03:56:45;;;;;;;0.20;0.20;;;;;;;1.09;90.34;103371.81;4942405;29;20039;-58
2023/02/07 03:59:10;;;;;;;0.30;0.30;;;;;;;0.70;91.99;103364.31;4943982;28;20094;-60
2023/02/07 04:01:40;;;;;;;0.70;0.70;;;;;;;0.51;93.59;103366.16;4945169;28;20558;-58
2023/02/07 04:04:09;;;;;;;0.40;0.40;;;;;;;0.75;93.24;103372.44;4946615;28;20039;-58
2023/02/07 04:06:35;;;;;;;0.20;0.20;;;;;;;0.78;92.19;103356.91;4941851;29;20302;-59
2023/02/07 04:09:01;;;;;;;0.30;0.30;;;;;;;0.91;92.41;103366.50;4940926;28;20037;-59
2023/02/07 04:11:26;;;;;;;0.30;0.30;;;;;;;0.88;92.81;103356.38;4938590;29;20039;-59
2023/02/07 04:13:52;;;;;;;0.20;0.20;;;;;;;0.89;92.18;103371.25;4946183;29;20510;-59
2023/02/07 04:16:17;;;;;;;0.65;0.63;;;;;;;0.95;93.04;103370.34;4938531;28;20032;-60
2023/02/07 04:18:43;;;;;;;0.32;0.32;;;;;;;1.06;93.20;103390.03;4940052;28;20105;-57
2023/02/07 04:21:09;;;;;;;0.20;0.20;;;;;;;1.08;92.20;103391.44;4947553;28;20030;-59
2023/02/07 04:23:35;;;;;;;0.30;0.30;;;;;;;1.08;91.59;103391.44;4945785;28;20535;-58
2023/02/07 04:26:01;;;;;;;0.20;0.20;;;;;;;1.10;91.78;103386.72;4937707;28;20120;-59
2023/02/07 04:28:27;;;;;;;0.28;0.28;;;;;;;1.06;91.39;103390.84;4941285;28;20039;-59
2023/02/07 04:30:53;;;;;;;0.52;0.52;;;;;;;0.90;91.32;103386.13;4945444;28;20039;-59
2023/02/07 04:33:20;;;;;;;0.50;0.50;;;;;;;0.96;91.56;103385.25;4943382;28;20071;-62
2023/02/07 04:35:56;;;;;;;0.30;0.30;;;;;;;0.93;91.46;103378.53;4949898;28;20039;-58
2023/02/07 04:38:22;;;;;;;0.22;0.22;;;;;;;0.97;91.03;103388.72;4949392;29;20479;-56
2023/02/07 04:40:47;;;;;;;0.22;0.22;;;;;;;1.00;91.03;103394.38;4951304;28;20038;-58
2023/02/07 04:43:13;;;;;;;0.28;0.28;;;;;;;0.97;90.82;103394.81;4947516;28;20447;-59
2023/02/07 04:45:38;;;;;;;0.30;0.30;;;;;;;0.95;90.30;103373.00;4947061;28;20035;-58
2023/02/07 04:48:04;;;;;;;0.20;0.20;;;;;;;0.82;90.26;103371.31;4951537;29;20027;-57
2023/02/07 04:50:29;;;;;;;0.20;0.20;;;;;;;0.83;90.72;103366.84;4949623;28;20618;-59
2023/02/07 04:52:55;;;;;;;1.65;0.50;;;;;;;0.71;90.54;103366.78;4949946;28;20047;-60
2023/02/07 04:55:21;;;;;;;0.40;0.40;;;;;;;0.82;90.28;103360.72;4954787;28;20039;-59
2023/02/07 04:57:47;;;;;;;0.30;0.30;;;;;;;0.82;90.51;103367.88;4950313;28;20094;-58
2023/02/07 05:00:13;;;;;;;0.40;0.40;;;;;;;0.83;89.78;103358.88;4954720;29;20090;-58
2023/02/07 05:02:39;;;;;;;0.30;0.30;;;;;;;0.81;90.37;103368.91;4948678;28;20439;-59
2023/02/07 05:05:05;;;;;;;0.43;0.43;;;;;;;0.63;90.74;103368.91;4954650;28;20174;-60
2023/02/07 05:07:30;;;;;;;0.15;0.15;;;;;;;0.72;90.60;103376.34;4954073;28;20097;-59
2023/02/07 05:09:56;;;;;;;0.40;0.40;;;;;;;0.64;91.19;103373.19;4947862;28;20039;-60
2023/02/07 05:12:21;;;;;;;0.30;0.30;;;;;;;0.81;91.04;103375.00;4951519;28;20071;-59
2023/02/07 05:14:47;;;;;;;0.60;0.60;;;;;;;0.83;90.49;103378.25;4954655;28;20038;-59
2023/02/07 05:17:12;;;;;;;0.50;0.50;;;;;;;0.76;90.05;103389.94;4953918;28;20039;-59
2023/02/07 05:19:38;;;;;;;0.20;0.20;;;;;;;0.78;90.58;103407.28;4952653;28;20126;-59
2023/02/07 05:22:04;;;;;;;0.40;0.40;;;;;;;0.68;89.35;103409.63;4954358;28;20027;-59
2023/02/07 05:24:29;;;;;;;0.20;0.20;;;;;;;0.69;89.89;103413.91;4954924;28;20035;-58
2023/02/07 05:26:55;;;;;;;0.40;0.40;;;;;;;0.63;90.41;103413.97;4954279;28;20119;-58
2023/02/07 05:29:20;;;;;;;0.40;0.40;;;;;;;0.52;90.12;103414.69;4951087;28;20042;-61
2023/02/07 05:34:29;;;;;;;0.47;0.47;;;;;;;0.41;89.97;103418.84;4953757;28;20050;-58
2023/02/07 05:36:55;;;;;;;0.60;0.60;;;;;;;0.12;89.89;103419.53;4952396;29;20043;-58
2023/02/07 05:39:20;;;;;;;0.63;0.63;;;;;;;0.16;90.46;103427.84;4943012;28;20031;-60
2023/02/07 05:41:46;;;;;;;0.45;0.45;;;;;;;0.21;90.17;103418.25;4935704;29;20129;-61
2023/02/07 05:44:12;;;;;;;0.30;0.30;;;;;;;0.18;90.46;103423.97;4945556;28;20101;-58
2023/02/07 05:46:37;;;;;;;0.30;0.30;;;;;;;0.26;90.26;103425.53;4953510;28;20046;-61
2023/02/07 05:49:03;;;;;;;0.20;0.20;;;;;;;0.18;90.53;103431.09;4952464;28;20054;-60
2023/02/07 05:51:28;;;;;;;0.20;0.20;;;;;;;0.28;90.02;103423.47;4942039;28;20111;-60
2023/02/07 05:53:54;;;;;;;0.40;0.40;;;;;;;0.18;89.97;103433.72;4944585;28;20090;-62
2023/02/07 05:56:20;;;;;;;0.40;0.40;;;;;;;0.23;89.56;103433.91;4935259;28;20039;-60
2023/02/07 05:58:45;;;;;;;0.30;0.30;;;;;;;0.25;89.56;103430.03;4940767;28;20423;-60
2023/02/07 06:01:11;;;;;;;0.40;0.40;;;;;;;0.09;90.04;103427.09;4941505;28;20490;-58
2023/02/07 06:03:36;;;;;;;0.40;0.40;;;;;;;0.22;90.46;103438.41;4944642;29;20042;-62
2023/02/07 06:06:02;;;;;;;0.30;0.30;;;;;;;0.34;89.42;103449.09;4946804;28;20023;-59
2023/02/07 06:08:27;;;;;;;0.40;0.40;;;;;;;0.35;88.72;103445.44;4950352;28;20087;-59
2023/02/07 06:10:53;;;;;;;0.30;0.30;;;;;;;0.14;88.57;103443.13;4946471;28;20058;-57
2023/02/07 06:13:18;;;;;;;0.30;0.30;;;;;;;0.12;88.90;103448.66;4941856;28;20130;-60
2023/02/07 06:15:44;;;;;;;0.30;0.30;;;;;;;0.07;88.94;103453.81;4939623;28;20067;-58
2023/02/07 06:18:09;;;;;;;0.38;0.38;;;;;;;-0.12;88.96;103460.03;4951829;28;20027;-58
2023/02/07 06:20:34;;;;;;;0.30;0.30;;;;;;;-0.12;89.03;103458.19;4962958;28;20070;-60
2023/02/07 06:23:00;;;;;;;0.30;0.30;;;;;;;-0.15;88.65;103452.50;4957175;28;20035;-58
2023/02/07 06:25:25;;;;;;;0.43;0.40;;;;;;;-0.07;89.09;103454.91;4933892;28;20044;-61
2023/02/07 06:27:51;;;;;;;0.57;0.57;;;;;;;-0.11;88.90;103449.22;4930535;28;20043;-60
2023/02/07 06:30:16;;;;;;;0.80;0.73;;;;;;;0.00;89.81;103459.13;4945705;28;20398;-59
2023/02/07 06:32:42;;;;;;;0.40;0.40;;;;;;;0.04;89.70;103469.31;4944494;28;20817;-58
2023/02/07 06:35:08;;;;;;;0.40;0.40;;;;;;;0.12;89.53;103467.19;4952620;29;20509;-63
2023/02/07 06:37:33;;;;;;;0.22;0.22;;;;;;;0.04;89.17;103469.31;4934728;28;20038;-59
2023/02/07 06:39:59;;;;;;;0.30;0.30;;;;;;;0.08;89.82;103473.94;4945275;28;20031;-61
2023/02/07 06:42:25;;;;;;;0.20;0.20;;;;;;;-0.08;90.49;103480.56;4944904;28;20037;-59
2023/02/07 06:44:50;;;;;;;0.30;0.30;;;;;;;-0.13;90.59;103479.59;4949939;28;20475;-57
2023/02/07 06:47:18;;;;;;;0.40;0.40;;;;;;;-0.08;91.16;103469.19;4941758;28;20048;-60
2023/02/07 06:49:43;;;;;;;0.50;0.50;;;;;;;-0.20;91.08;103471.69;4938229;28;20032;-61
2023/02/07 06:52:09;;;;;;;0.20;0.20;;;;;;;-0.27;91.14;103467.47;4938966;28;20031;-56
2023/02/07 06:54:34;;;;;;;0.30;0.30;;;;;;;-0.14;91.19;103464.75;4945629;28;20038;-56
2023/02/07 06:57:00;;;;;;;0.38;0.38;;;;;;;-0.13;91.42;103464.53;4952372;28;20046;-62
2023/02/07 06:59:25;;;;;;;0.30;0.30;;;;;;;-0.25;92.04;103470.69;4947501;28;20039;-59
2023/02/07 07:01:51;;;;;;;0.40;0.40;;;;;;;-0.32;92.91;103480.50;4951230;28;20045;-60
2023/02/07 07:04:17;;;;;;;0.20;0.20;;;;;;;-0.13;92.34;103474.28;4952334;28;20086;-60
2023/02/07 07:06:43;;;;;;;0.30;0.30;;;;;;;-0.17;93.09;103478.38;4951653;28;20032;-62
2023/02/07 07:09:08;;;;;;;0.20;0.20;;;;;;;0.06;92.72;103483.16;4950073;29;20038;-61
2023/02/07 07:11:35;;;;;;;0.25;0.25;;;;;;;0.02;91.43;103479.31;4952624;28;20039;-56
2023/02/07 07:14:01;;;;;;;0.20;0.20;;;;;;;-0.33;92.70;103492.94;4951825;28;20565;-62
2023/02/07 07:16:27;;;;;;;0.30;0.30;;;;;;;-0.38;93.28;103484.81;4951118;28;20186;-60
2023/02/07 07:18:52;;;;;;;0.30;0.30;;;;;;;-0.32;94.02;103488.44;4961357;28;20486;-60
2023/02/07 07:21:18;;;;;;;0.28;0.28;;;;;;;-0.24;93.71;103496.16;4947171;28;20039;-60
2023/02/07 07:23:43;;;;;;;0.35;0.35;;;;;;;-0.30;94.15;103486.41;4951181;29;20114;-60
2023/02/07 07:26:09;;;;;;;0.30;0.30;;;;;;;-0.33;94.85;103486.84;4940524;28;20391;-58
2023/02/07 07:28:34;;;;;;;0.60;0.60;;;;;;;-0.39;94.99;103491.16;4949088;28;20613;-60
2023/02/07 07:31:07;;;;;;;0.40;0.40;;;;;;;-0.17;95.19;103487.16;4951968;29;20114;-58
2023/02/07 07:33:34;;;;;;;1.02;1.02;;;;;;;-0.61;95.62;103486.34;4950200;29;20175;-57
2023/02/07 07:36:00;;;;;;;0.30;0.30;;;;;;;-0.61;96.23;103487.16;4951789;28;20050;-57
2023/02/07 07:38:26;;;;;;;0.40;0.40;;;;;;;-0.69;96.89;103484.75;4941734;28;20066;-56
2023/02/07 07:40:52;;;;;;;0.20;0.20;;;;;;;-0.53;96.78;103486.13;4936550;28;20040;-60
2023/02/07 07:43:17;;;;;;;0.30;0.30;;;;;;;-0.31;96.54;103496.19;4936073;28;20046;-58
2023/02/07 07:45:48;;;;;;;0.20;0.20;;;;;;;-0.14;96.47;103483.28;4945188;28;20036;-58
2023/02/07 07:48:14;;;;;;;0.30;0.30;;;;;;;-0.16;95.80;103494.09;4946251;28;20035;-61
2023/02/07 07:50:39;;;;;;;0.20;0.20;;;;;;;-0.12;94.67;103486.53;4948565;29;20031;-60
2023/02/07 07:53:05;;;;;;;0.30;0.30;;;;;;;0.10;94.71;103482.50;4951144;28;20047;-56
2023/02/07 07:55:30;;;;;;;1.02;1.02;;;;;;;0.16;93.88;103486.13;4951645;28;20035;-58
2023/02/07 07:57:56;;;;;;;0.20;0.20;;;;;;;0.17;93.88;103493.03;4947599;28;20035;-58
2023/02/07 08:00:21;;;;;;;0.20;0.20;;;;;;;-0.03;94.73;103486.06;4951091;29;20038;-59
2023/02/07 08:02:46;;;;;;;0.80;0.80;;;;;;;0.10;95.22;103487.00;4951093;28;20439;-58
2023/02/07 08:05:12;;;;;;;0.30;0.30;;;;;;;-0.10;94.47;103489.78;4952047;28;20039;-55
2023/02/07 08:07:37;;;;;;;0.20;0.20;;;;;;;-0.22;95.30;103492.28;4949220;28;20031;-58
2023/02/07 08:10:04;;;;;;;0.20;0.20;;;;;;;-0.02;96.50;103498.25;4951873;29;20023;-61
2023/02/07 08:12:30;;;;;;;0.40;0.40;;;;;;;0.07;94.96;103506.75;4952865;28;20051;-58
2023/02/07 08:14:55;;;;;;;0.30;0.30;;;;;;;0.13;93.87;103497.16;4951163;28;20043;-59
2023/02/07 08:17:21;;;;;;;0.30;0.30;;;;;;;0.29;93.98;103494.78;4950190;29;20475;-59
2023/02/07 08:19:46;;;;;;;0.20;0.20;;;;;;;0.14;93.91;103485.50;4951444;28;20027;-56
2023/02/07 08:22:13;;;;;;;0.30;0.30;;;;;;;0.00;94.57;103487.47;4940981;28;20091;-58
2023/02/07 08:24:38;;;;;;;0.30;0.30;;;;;;;-0.07;95.72;103473.44;4943204;28;20142;-55
2023/02/07 08:27:04;;;;;;;0.30;0.30;;;;;;;0.21;95.50;103481.00;4945100;28;20093;-58
2023/02/07 08:29:29;;;;;;;0.20;0.20;;;;;;;0.42;93.94;103485.91;4947333;28;20119;-60
2023/02/07 08:31:55;;;;;;;0.30;0.30;;;;;;;0.28;93.36;103476.44;4943454;28;20046;-56
2023/02/07 08:34:25;;;;;;;0.30;0.30;;;;;;;0.16;94.88;103475.50;4954703;29;20518;-60
2023/02/07 08:36:50;;;;;;;0.20;0.20;;;;;;;0.17;94.66;103477.16;4952562;28;20038;-59
2023/02/07 08:39:16;;;;;;;0.30;0.30;;;;;;;0.37;94.43;103483.13;4947655;29;20035;-59
2023/02/07 08:41:41;;;;;;;0.30;0.30;;;;;;;-0.02;94.92;103474.41;4967942;28;20103;-61
2023/02/07 08:44:07;;;;;;;1.33;0.70;;;;;;;-0.04;96.17;103480.97;4949038;28;20130;-60
2023/02/07 08:46:32;;;;;;;0.30;0.30;;;;;;;0.07;96.94;103474.16;4952496;28;20031;-60
2023/02/07 08:48:58;;;;;;;0.22;0.22;;;;;;;0.45;95.34;103485.47;4954793;29;20510;-60
2023/02/07 08:51:23;;;;;;;0.30;0.30;;;;;;;0.51;95.17;103484.63;4954901;28;20415;-59
2023/02/07 08:53:49;;;;;;;2.28;0.57;;;;;;;0.56;94.82;103482.13;4948167;28;20055;-56
2023/02/07 08:56:14;;;;;;;0.40;0.40;;;;;;;0.38;95.99;103492.69;4958373;28;20158;-62
2023/02/07 08:58:40;;;;;;;0.45;0.45;;;;;;;0.51;95.94;103485.44;4951491;28;20039;-61
2023/02/07 09:01:09;;;;;;;0.88;0.88;;;;;;;0.33;96.17;103481.94;4944742;28;20063;-58
2023/02/07 09:03:36;;;;;;;0.30;0.30;;;;;;;0.53;96.56;103482.56;4938198;28;20031;-62
2023/02/07 09:06:02;;;;;;;0.50;0.50;;;;;;;0.93;95.46;103478.50;4935664;28;20036;-62
2023/02/07 09:08:28;;;;;;;0.30;0.30;;;;;;;1.03;94.61;103485.97;4943861;28;20043;-58
2023/02/07 09:10:53;;;;;;;0.30;0.30;;;;;;;0.81;95.46;103482.91;4946147;28;20453;-61
2023/02/07 09:13:19;;;;;;;0.20;0.20;;;;;;;0.81;96.33;103483.72;4949005;28;20076;-60
2023/02/07 09:15:44;;;;;;;0.40;0.40;;;;;;;1.02;95.58;103481.69;4947237;28;20079;-58
2023/02/07 09:18:10;;;;;;;0.57;0.57;;;;;;;1.06;95.15;103491.63;4939410;28;20031;-57
2023/02/07 09:20:35;;;;;;;0.30;0.30;;;;;;;0.94;94.96;103490.72;4941859;29;20447;-58
2023/02/07 09:23:19;;;;;;;0.30;0.30;;;;;;;0.87;95.19;103503.25;4944639;28;20051;-60
2023/02/07 09:25:47;;;;;;;0.45;0.45;;;;;;;1.15;93.93;103500.09;4943444;28;20054;-60
2023/02/07 09:28:13;;;;;;;0.30;0.30;;;;;;;0.95;93.80;103499.50;4946859;28;20509;-60
2023/02/07 09:30:43;;;;;;;0.30;0.30;;;;;;;0.98;93.62;103494.56;4940025;29;20043;-60
2023/02/07 09:33:10;;;;;;;0.35;0.35;;;;;;;1.09;94.52;103493.84;4951086;28;20514;-61
2023/02/07 09:35:41;;;;;;;0.30;0.30;;;;;;;0.91;94.52;103504.41;4940803;28;20046;-58
2023/02/07 09:38:11;;;;;;;0.30;0.30;;;;;;;1.05;94.95;103507.75;4943664;28;20474;-59
2023/02/07 09:40:36;;;;;;;0.20;0.20;;;;;;;1.27;94.00;103503.63;4940519;28;20356;-60
2023/02/07 09:43:23;;;;;;;0.68;0.68;;;;;;;1.42;93.32;103512.03;4937817;28;20031;-60
2023/02/07 09:45:54;;;;;;;0.35;0.35;;;;;;;1.27;94.96;103508.94;4938876;28;20035;-62
2023/02/07 09:48:46;;;;;;;0.40;0.40;;;;;;;1.32;93.58;103509.06;4950432;28;20075;-57
2023/02/07 09:51:14;;;;;;;0.40;0.40;;;;;;;1.23;95.09;103508.59;4944201;28;20035;-59
2023/02/07 09:53:53;;;;;;;0.20;0.20;;;;;;;1.37;93.38;103503.94;4953393;28;20117;-56
2023/02/07 09:56:23;;;;;;;0.30;0.30;;;;;;;1.71;92.97;103501.44;4953826;28;20035;-57
2023/02/07 09:58:59;;;;;;;0.25;0.25;;;;;;;1.59;91.76;103505.88;4945022;28;20039;-55
2023/02/07 10:01:28;;;;;;;0.20;0.20;;;;;;;1.28;93.63;103507.94;4943232;28;20031;-55
2023/02/07 10:03:54;;;;;;;0.30;0.30;;;;;;;1.40;93.67;103509.59;4950594;28;20087;-57
2023/02/07 10:06:26;;;;;;;0.30;0.30;;;;;;;1.55;93.65;103515.34;4947877;28;20114;-54
2023/02/07 10:08:55;;;;;;;0.20;0.20;;;;;;;1.54;93.00;103512.91;4941014;28;20586;-58
2023/02/07 10:11:33;;;;;;;0.40;0.40;;;;;;;1.37;93.22;103506.59;4936909;28;20129;-55
2023/02/07 10:14:16;;;;;;;0.35;0.35;;;;;;;1.61;93.81;103505.66;4950564;28;20039;-53
2023/02/07 10:17:20;;;;;;;0.32;0.32;;;;;;;1.39;95.25;103500.03;4952740;28;20058;-58
2023/02/07 10:20:22;;;;;;;0.40;0.40;;;;;;;1.67;94.20;103507.41;4944362;28;20051;-56
2023/02/07 10:22:59;;;;;;;0.30;0.30;;;;;;;1.48;93.18;103509.31;4938440;28;20043;-63
2023/02/07 10:25:43;;;;;;;0.50;0.50;;;;;;;1.41;94.20;103505.13;4947318;28;20046;-54
2023/02/07 10:28:38;;;;;;;0.30;0.30;;;;;;;1.15;94.07;103503.56;4952269;28;20031;-55
2023/02/07 10:31:15;;;;;;;0.30;0.30;;;;;;;1.13;95.39;103502.97;4942831;28;20039;-54
2023/02/07 10:33:47;;;;;;;0.20;0.20;;;;;;;1.35;95.44;103498.84;4945084;28;20141;-56
2023/02/07 10:36:14;;;;;;;0.30;0.30;;;;;;;1.57;95.75;103500.00;4938197;28;20037;-56
2023/02/07 10:39:06;;;;;;;0.40;0.40;;;;;;;1.22;95.45;103501.63;4940850;29;20031;-60
2023/02/07 10:41:37;;;;;;;0.30;0.30;;;;;;;1.46;95.52;103499.94;4949221;29;20057;-55
2023/02/07 10:44:06;;;;;;;0.30;0.30;;;;;;;1.61;95.78;103501.16;4939661;28;20054;-56
2023/02/07 10:46:33;;;;;;;0.63;0.63;;;;;;;1.48;95.03;103495.22;4938736;28;20043;-58
2023/02/07 10:48:59;;;;;;;0.30;0.30;;;;;;;1.57;94.56;103494.69;4946460;28;20122;-57
2023/02/07 10:51:30;;;;;;;0.20;0.20;;;;;;;1.54;94.39;103483.72;4940684;28;20043;-61
2023/02/07 10:54:09;;;;;;;0.45;0.45;;;;;;;1.62;93.77;103489.53;4933437;28;20607;-63
2023/02/07 10:56:41;;;;;;;0.32;0.32;;;;;;;1.66;94.65;103490.69;4941269;28;20112;-55
2023/02/07 10:59:33;;;;;;;0.63;0.63;;;;;;;2.06;94.07;103492.78;4940413;28;20039;-60
2023/02/07 11:02:00;;;;;;;0.60;0.60;;;;;;;2.28;93.05;103491.22;4928648;28;20039;-61
2023/02/07 11:04:36;;;;;;;0.40;0.40;;;;;;;2.14;91.80;103489.81;4942082;28;20081;-59
2023/02/07 11:07:04;;;;;;;0.40;0.40;;;;;;;2.01;92.27;103484.69;4945039;28;20478;-60
2023/02/07 11:09:31;;;;;;;0.30;0.30;;;;;;;2.07;93.15;103486.44;4943698;28;20039;-58
2023/02/07 11:11:57;;;;;;;0.60;0.60;;;;;;;2.22;92.13;103481.50;4939270;28;20118;-60
2023/02/07 11:14:27;;;;;;;0.40;0.40;;;;;;;1.18;93.46;103478.44;4940174;28;20182;-58
2023/02/07 11:17:00;;;;;;;0.40;0.40;;;;;;;1.34;94.64;103477.81;4940689;28;20039;-59
2023/02/07 11:19:28;;;;;;;0.30;0.30;;;;;;;1.62;94.65;103492.19;4944702;28;20040;-56
2023/02/07 11:22:08;;;;;;;0.30;0.30;;;;;;;1.63;94.30;103490.31;4939227;28;20126;-58
2023/02/07 11:24:35;;;;;;;0.32;0.32;;;;;;;1.82;94.17;103482.09;4940836;28;20153;-57
2023/02/07 11:27:14;;;;;;;0.43;0.43;;;;;;;1.86;92.96;103473.69;4945464;28;20031;-55
2023/02/07 11:30:03;;;;;;;0.60;0.60;;;;;;;1.95;93.50;103462.50;4928160;23;20039;-58
2023/02/07 11:32:30;;;;;;;0.20;0.20;;;;;;;1.98;92.17;103459.38;4915972;29;20135;-59
2023/02/07 11:35:19;;;;;;;0.95;0.93;;;;;;;2.03;92.32;103456.06;4908563;29;20534;-59
2023/02/07 11:38:11;;;;;;;0.20;0.20;;;;;;;1.98;93.58;103446.09;4918774;29;20043;-60
2023/02/07 11:40:49;;;;;;;0.82;0.82;;;;;;;2.18;93.24;103449.25;4920732;29;20091;-59
2023/02/07 11:43:18;;;;;;;0.40;0.40;;;;;;;2.08;92.88;103458.81;4915836;29;20171;-59
2023/02/07 11:45:48;;;;;;;0.28;0.28;;;;;;;2.14;91.98;103458.72;4911757;29;20036;-59